createdAt,value
2022-10-25T00:00:45.493Z,31.38
2022-10-25T00:03:14.207Z,30.05
2022-10-25T00:05:43.547Z,30.33
2022-10-25T00:08:11.616Z,29.92
2022-10-25T00:10:39.609Z,30.30
2022-10-25T00:13:09.129Z,30.20
2022-10-25T00:15:37.181Z,29.48
2022-10-25T00:18:05.717Z,28.52
2022-10-25T00:20:33.736Z,28.23
2022-10-25T00:23:01.689Z,29.40
2022-10-25T00:25:29.850Z,29.50
2022-10-25T00:27:57.865Z,29.08
2022-10-25T00:30:27.292Z,28.83
2022-10-25T00:32:55.346Z,29.05
2022-10-25T00:35:23.417Z,28.65
2022-10-25T00:37:51.595Z,29.50
2022-10-25T00:40:20.569Z,28.42
2022-10-25T00:42:48.731Z,28.52
2022-10-25T00:45:27.830Z,28.73
2022-10-25T00:48:00.856Z,28.58
2022-10-25T00:50:44.433Z,28.35
2022-10-25T00:53:17.763Z,29.75
2022-10-25T00:55:52.347Z,29.48
2022-10-25T00:58:24.559Z,28.88
2022-10-25T01:00:54.079Z,29.38
2022-10-25T01:03:23.895Z,28.70
2022-10-25T01:05:53.200Z,28.65
2022-10-25T01:08:22.551Z,27.98
2022-10-25T01:10:51.381Z,28.27
2022-10-25T01:13:19.867Z,28.40
2022-10-25T01:16:03.625Z,28.95
2022-10-25T01:18:43.429Z,28.98
2022-10-25T01:21:50.691Z,29.60
2022-10-25T01:24:45.669Z,29.75
2022-10-25T01:27:37.970Z,29.52
2022-10-25T01:30:16.890Z,29.23
2022-10-25T01:33:02.006Z,29.83
2022-10-25T01:35:33.674Z,29.33
2022-10-25T01:38:18.722Z,30.35
2022-10-25T01:40:53.903Z,30.00
2022-10-25T01:43:30.244Z,29.30
2022-10-25T01:46:05.279Z,29.75
2022-10-25T01:48:38.239Z,29.58
2022-10-25T01:51:10.948Z,28.75
2022-10-25T01:53:46.816Z,28.65
2022-10-25T01:56:23.167Z,29.02
2022-10-25T01:59:11.911Z,29.48
2022-10-25T02:01:50.637Z,28.92
2022-10-25T02:04:30.170Z,28.65
2022-10-25T02:07:03.728Z,29.38
2022-10-25T02:09:35.577Z,28.48
2022-10-25T02:12:07.654Z,28.17
2022-10-25T02:14:38.976Z,27.17
2022-10-25T02:17:12.164Z,26.17
2022-10-25T02:19:46.760Z,27.25
2022-10-25T02:22:16.980Z,26.63
2022-10-25T02:24:47.875Z,26.83
2022-10-25T02:27:16.782Z,25.88
2022-10-25T02:29:47.287Z,26.30
2022-10-25T02:32:15.428Z,26.25
2022-10-25T02:34:51.096Z,26.23
2022-10-25T02:37:19.708Z,25.40
2022-10-25T02:39:48.048Z,27.25
2022-10-25T02:42:16.180Z,26.42
2022-10-25T02:44:44.240Z,25.83
2022-10-25T02:47:15.323Z,25.95
2022-10-25T02:49:44.866Z,25.90
2022-10-25T02:52:12.821Z,26.17
2022-10-25T02:54:41.240Z,26.23
2022-10-25T02:57:09.233Z,25.88
2022-10-25T02:59:37.216Z,26.15
2022-10-25T03:02:05.187Z,25.90
2022-10-25T03:04:36.136Z,26.13
2022-10-25T03:07:05.642Z,26.90
2022-10-25T03:09:33.822Z,25.25
2022-10-25T03:12:01.803Z,25.60
2022-10-25T03:14:29.869Z,26.17
2022-10-25T03:16:57.883Z,26.42
2022-10-25T03:19:26.057Z,26.33
2022-10-25T03:21:54.063Z,26.45
2022-10-25T03:24:23.688Z,25.88
2022-10-25T03:26:51.711Z,26.17
2022-10-25T03:29:20.071Z,26.13
2022-10-25T03:31:48.137Z,25.98
2022-10-25T03:34:16.189Z,27.08
2022-10-25T03:36:44.259Z,26.35
2022-10-25T03:39:12.444Z,26.85
2022-10-25T03:41:41.833Z,27.05
2022-10-25T03:44:09.907Z,26.58
2022-10-25T03:46:37.953Z,27.20
2022-10-25T03:49:05.969Z,26.80
2022-10-25T03:51:34.293Z,25.30
2022-10-25T03:54:02.444Z,26.38
2022-10-25T03:56:30.629Z,26.10
2022-10-25T03:59:00.276Z,26.23
2022-10-25T04:01:28.510Z,26.92
2022-10-25T04:03:56.756Z,26.17
2022-10-25T04:06:24.875Z,25.88
2022-10-25T04:08:52.963Z,26.30
2022-10-25T04:11:22.931Z,26.55
2022-10-25T04:13:51.070Z,26.30
2022-10-25T04:16:20.573Z,26.85
2022-10-25T04:18:48.543Z,26.90
2022-10-25T04:21:18.363Z,26.50
2022-10-25T04:23:46.414Z,26.70
2022-10-25T04:26:17.724Z,26.48
2022-10-25T04:28:46.221Z,25.83
2022-10-25T04:31:14.384Z,25.65
2022-10-25T04:33:46.578Z,25.40
2022-10-25T04:36:19.249Z,26.98
2022-10-25T04:38:49.297Z,25.27
2022-10-25T04:41:17.736Z,24.80
2022-10-25T04:43:46.175Z,26.08
2022-10-25T04:46:17.460Z,26.52
2022-10-25T04:48:46.838Z,27.50
2022-10-25T04:51:15.645Z,26.65
2022-10-25T04:53:43.684Z,26.42
2022-10-25T04:56:14.517Z,25.98
2022-10-25T04:58:42.798Z,25.33
2022-10-25T05:01:13.537Z,26.02
2022-10-25T05:03:42.590Z,25.13
2022-10-25T05:06:14.355Z,25.38
2022-10-25T05:08:43.795Z,24.48
2022-10-25T05:11:13.672Z,25.17
2022-10-25T05:13:42.846Z,24.92
2022-10-25T05:16:14.639Z,25.80
2022-10-25T05:18:45.648Z,26.25
2022-10-25T05:21:16.058Z,25.75
2022-10-25T05:23:44.153Z,25.45
2022-10-25T05:26:14.755Z,25.55
2022-10-25T05:28:44.020Z,24.50
2022-10-25T05:31:16.260Z,24.55
2022-10-25T05:33:46.063Z,24.25
2022-10-25T05:36:16.134Z,25.63
2022-10-25T05:38:44.190Z,25.63
2022-10-25T05:41:14.977Z,25.58
2022-10-25T05:43:43.370Z,24.80
2022-10-25T05:46:13.743Z,26.38
2022-10-25T05:48:47.303Z,26.42
2022-10-25T05:51:33.056Z,26.73
2022-10-25T05:54:03.660Z,26.02
2022-10-25T05:56:32.705Z,26.33
2022-10-25T05:59:04.169Z,24.88
2022-10-25T06:01:34.577Z,27.00
2022-10-25T06:04:02.849Z,26.63
2022-10-25T06:06:32.512Z,26.13
2022-10-25T06:09:01.871Z,26.70
2022-10-25T06:11:31.143Z,28.23
2022-10-25T06:13:59.171Z,27.90
2022-10-25T06:16:27.750Z,27.23
2022-10-25T06:18:55.767Z,28.48
2022-10-25T06:21:26.152Z,29.23
2022-10-25T06:23:56.572Z,28.98
2022-10-25T06:26:26.617Z,28.05
2022-10-25T06:28:55.988Z,26.40
2022-10-25T06:31:24.655Z,26.55
2022-10-25T06:33:53.387Z,25.77
2022-10-25T06:36:22.783Z,25.67
2022-10-25T06:38:51.640Z,27.17
2022-10-25T06:41:22.644Z,26.40
2022-10-25T06:43:51.281Z,27.25
2022-10-25T06:46:23.623Z,28.35
2022-10-25T06:48:53.192Z,28.42
2022-10-25T06:51:21.957Z,26.92
2022-10-25T06:53:54.860Z,27.00
2022-10-25T06:56:24.641Z,26.25
2022-10-25T06:58:52.832Z,25.98
2022-10-25T07:01:23.044Z,27.13
2022-10-25T07:03:53.584Z,25.88
2022-10-25T07:06:25.069Z,26.05
2022-10-25T07:08:55.748Z,26.45
2022-10-25T07:11:26.921Z,25.92
2022-10-25T07:13:55.106Z,26.33
2022-10-25T07:16:23.605Z,26.83
2022-10-25T07:18:52.003Z,25.27
2022-10-25T07:21:22.089Z,26.73
2022-10-25T07:23:53.293Z,26.70
2022-10-25T07:26:25.259Z,26.80
2022-10-25T07:28:56.643Z,26.13
2022-10-25T07:31:29.142Z,26.13
2022-10-25T07:34:00.795Z,26.90
2022-10-25T07:36:28.980Z,26.02
2022-10-25T07:38:57.775Z,26.50
2022-10-25T07:41:35.901Z,27.45
2022-10-25T07:44:04.197Z,27.45
2022-10-25T07:46:52.084Z,27.38
2022-10-25T07:49:41.352Z,26.08
2022-10-25T07:52:11.532Z,27.77
2022-10-25T07:57:11.989Z,28.63
2022-10-25T07:59:42.638Z,31.17
2022-10-25T08:02:20.872Z,32.00
2022-10-25T08:04:54.223Z,32.63
2022-10-25T08:07:24.907Z,33.38
2022-10-25T08:09:59.700Z,34.30
2022-10-25T08:12:29.653Z,34.67
2022-10-25T08:14:58.512Z,36.70
2022-10-25T08:17:29.272Z,37.53
2022-10-25T08:19:57.745Z,37.05
2022-10-25T08:22:26.574Z,37.85
2022-10-25T08:25:24.797Z,36.28
2022-10-25T08:28:04.557Z,36.97
2022-10-25T08:30:42.594Z,38.50
2022-10-25T08:33:11.970Z,39.72
2022-10-25T08:35:43.268Z,39.72
2022-10-25T08:38:19.650Z,38.47
2022-10-25T08:40:55.768Z,38.55
2022-10-25T08:43:50.010Z,38.13
2022-10-25T08:46:33.702Z,37.28
2022-10-25T08:49:12.013Z,36.42
2022-10-25T08:51:52.481Z,37.00
2022-10-25T08:54:27.183Z,38.35
2022-10-25T08:57:16.640Z,38.58
2022-10-25T09:00:22.793Z,34.78
2022-10-25T09:03:15.273Z,37.05
2022-10-25T09:06:09.934Z,33.80
2022-10-25T09:09:01.042Z,33.88
2022-10-25T09:11:45.568Z,34.53
2022-10-25T09:14:23.863Z,33.78
2022-10-25T09:16:54.901Z,33.60
2022-10-25T09:19:44.380Z,33.50
2022-10-25T09:22:17.834Z,35.97
2022-10-25T09:24:57.768Z,34.67
2022-10-25T09:27:35.259Z,33.10
2022-10-25T09:30:07.656Z,34.42
2022-10-25T09:32:41.242Z,34.63
2022-10-25T09:35:17.143Z,35.60
2022-10-25T09:37:49.815Z,35.83
2022-10-25T09:40:22.210Z,35.28
2022-10-25T09:42:54.230Z,35.13
2022-10-25T09:45:38.467Z,35.45
2022-10-25T09:48:16.698Z,34.95
2022-10-25T09:50:50.652Z,36.90
2022-10-25T09:53:21.858Z,37.90
2022-10-25T09:55:54.273Z,38.13
2022-10-25T09:58:24.638Z,35.08
2022-10-25T10:00:54.394Z,36.33
2022-10-25T10:03:41.826Z,34.55
2022-10-25T10:06:23.157Z,32.85
2022-10-25T10:08:54.169Z,32.33
2022-10-25T10:11:22.266Z,31.55
2022-10-25T10:14:06.230Z,32.88
2022-10-25T10:16:48.049Z,33.72
2022-10-25T10:19:23.703Z,32.60
2022-10-25T10:22:01.176Z,31.85
2022-10-25T10:24:36.915Z,31.15
2022-10-25T10:27:08.798Z,29.60
2022-10-25T10:29:39.315Z,28.70
2022-10-25T10:32:23.242Z,28.38
2022-10-25T10:34:56.564Z,28.90
2022-10-25T10:37:25.478Z,28.02
2022-10-25T10:39:55.507Z,27.50
2022-10-25T10:42:24.779Z,27.63
2022-10-25T10:45:16.651Z,26.48
2022-10-25T10:47:46.783Z,25.67
2022-10-25T10:50:28.675Z,25.80
2022-10-25T10:53:00.972Z,27.33
2022-10-25T10:55:32.532Z,26.15
2022-10-25T10:58:04.777Z,25.75
2022-10-25T11:00:34.868Z,25.50
2022-10-25T11:03:02.992Z,25.60
2022-10-25T11:05:35.116Z,26.20
2022-10-25T11:08:15.296Z,26.83
2022-10-25T11:10:46.311Z,27.77
2022-10-25T11:13:16.579Z,26.25
2022-10-25T11:16:02.088Z,28.67
2022-10-25T11:18:41.274Z,28.25
2022-10-25T11:21:21.847Z,27.88
2022-10-25T11:24:11.901Z,28.60
2022-10-25T11:26:54.359Z,27.88
2022-10-25T11:29:37.182Z,27.58
2022-10-25T11:32:27.858Z,27.77
2022-10-25T11:35:05.394Z,29.65
2022-10-25T11:37:40.392Z,30.10
2022-10-25T11:40:16.910Z,30.83
2022-10-25T11:43:01.165Z,28.95
2022-10-25T11:45:48.626Z,28.35
2022-10-25T11:48:36.457Z,29.90
2022-10-25T11:51:11.664Z,31.30
2022-10-25T11:54:01.974Z,29.30
2022-10-25T11:56:36.924Z,28.92
2022-10-25T11:59:16.471Z,28.17
2022-10-25T12:01:58.921Z,27.63
2022-10-25T12:04:54.324Z,28.85
2022-10-25T12:07:30.174Z,28.05
2022-10-25T12:10:10.188Z,27.92
2022-10-25T12:12:46.486Z,26.30
2022-10-25T12:15:21.407Z,28.20
2022-10-25T12:17:51.092Z,30.02
2022-10-25T12:20:24.617Z,27.25
2022-10-25T12:22:55.939Z,26.98
2022-10-25T12:25:29.723Z,27.55
2022-10-25T12:28:06.873Z,27.33
2022-10-25T12:30:40.964Z,27.52
2022-10-25T12:33:16.971Z,28.75
2022-10-25T12:35:50.615Z,27.83
2022-10-25T12:38:27.718Z,29.10
2022-10-25T12:41:07.123Z,29.38
2022-10-25T12:43:38.668Z,27.63
2022-10-25T12:46:35.321Z,26.35
2022-10-25T12:49:33.670Z,26.88
2022-10-25T12:52:22.015Z,28.05
2022-10-25T12:55:22.104Z,28.70
2022-10-25T12:58:02.882Z,28.65
2022-10-25T13:00:36.204Z,28.83
2022-10-25T13:03:43.331Z,27.92
2022-10-25T13:06:29.812Z,30.20
2022-10-25T13:09:04.086Z,29.80
2022-10-25T13:11:38.311Z,29.90
2022-10-25T13:14:20.128Z,30.27
2022-10-25T13:16:48.114Z,29.58
2022-10-25T13:22:35.880Z,29.23
2022-10-25T13:25:17.342Z,25.95
2022-10-25T13:28:18.044Z,27.05
2022-10-25T13:30:47.466Z,28.30
2022-10-25T13:33:29.391Z,28.17
2022-10-25T13:36:01.907Z,29.35
2022-10-25T13:38:36.572Z,29.30
2022-10-25T13:41:15.272Z,28.67
2022-10-25T13:44:03.192Z,28.15
2022-10-25T13:46:35.847Z,29.17
2022-10-25T13:49:22.073Z,30.00
2022-10-25T13:51:50.191Z,28.00
2022-10-25T13:54:18.483Z,26.17
2022-10-25T13:56:52.020Z,27.67
2022-10-25T14:00:00.044Z,28.27
2022-10-25T14:02:31.021Z,25.27
2022-10-25T14:05:03.899Z,25.05
2022-10-25T14:07:48.100Z,25.98
2022-10-25T14:10:29.177Z,23.45
2022-10-25T14:13:07.442Z,23.98
2022-10-25T14:15:49.293Z,25.10
2022-10-25T14:18:23.536Z,25.00
2022-10-25T14:20:55.656Z,24.88
2022-10-25T14:23:26.706Z,24.25
2022-10-25T14:25:59.456Z,25.35
2022-10-25T14:28:29.150Z,25.83
2022-10-25T14:30:59.065Z,25.38
2022-10-25T14:33:31.108Z,26.85
2022-10-25T14:36:09.542Z,26.30
2022-10-25T14:38:49.977Z,25.90
2022-10-25T14:41:22.422Z,26.40
2022-10-25T14:43:50.585Z,26.52
2022-10-25T14:46:19.972Z,27.92
2022-10-25T14:48:50.761Z,26.40
2022-10-25T14:51:21.882Z,27.05
2022-10-25T14:53:56.533Z,26.95
2022-10-25T14:56:28.865Z,26.33
2022-10-25T14:58:57.653Z,25.05
2022-10-25T15:01:26.880Z,24.60
2022-10-25T15:04:00.443Z,24.65
2022-10-25T15:06:30.987Z,25.98
2022-10-25T15:09:36.907Z,24.65
2022-10-25T15:12:19.141Z,26.20
2022-10-25T15:14:48.274Z,25.63
2022-10-25T15:17:28.585Z,24.05
2022-10-25T15:20:29.406Z,22.88
2022-10-25T15:23:05.332Z,23.63
2022-10-25T15:25:38.513Z,22.92
2022-10-25T15:28:13.789Z,23.83
2022-10-25T15:30:52.082Z,25.13
2022-10-25T15:33:26.598Z,24.65
2022-10-25T15:35:58.368Z,25.48
2022-10-25T15:38:47.947Z,25.15
2022-10-25T15:41:19.008Z,26.02
2022-10-25T15:43:47.206Z,26.23
2022-10-25T15:46:25.717Z,26.73
2022-10-25T15:48:53.987Z,28.25
2022-10-25T15:51:25.202Z,28.42
2022-10-25T15:53:55.480Z,27.60
2022-10-25T15:56:25.606Z,27.85
2022-10-25T15:58:53.570Z,27.67
2022-10-25T16:01:22.382Z,27.77
2022-10-25T16:03:50.449Z,29.00
2022-10-25T16:06:24.607Z,28.15
2022-10-25T16:08:52.549Z,28.80
2022-10-25T16:11:22.277Z,28.58
2022-10-25T16:13:52.725Z,28.58
2022-10-25T16:16:39.282Z,28.85
2022-10-25T16:19:13.630Z,29.20
2022-10-25T16:21:43.159Z,29.63
2022-10-25T16:24:11.457Z,27.42
2022-10-25T16:26:42.780Z,25.88
2022-10-25T16:29:18.054Z,27.20
2022-10-25T16:31:46.004Z,27.13
2022-10-25T16:34:15.505Z,28.42
2022-10-25T16:36:45.029Z,26.63
2022-10-25T16:39:13.563Z,27.65
2022-10-25T16:41:43.669Z,27.83
2022-10-25T16:44:12.889Z,28.27
2022-10-25T16:46:41.030Z,26.92
2022-10-25T16:49:09.669Z,27.67
2022-10-25T16:51:38.584Z,28.60
2022-10-25T16:54:09.147Z,28.90
2022-10-25T16:56:37.077Z,27.85
2022-10-25T16:59:05.051Z,28.85
2022-10-25T17:01:35.597Z,28.63
2022-10-25T17:04:07.782Z,29.02
2022-10-25T17:06:41.316Z,29.17
2022-10-25T17:09:11.702Z,29.23
2022-10-25T17:11:39.701Z,28.92
2022-10-25T17:14:09.561Z,30.80
2022-10-25T17:16:37.949Z,31.15
2022-10-25T17:19:05.995Z,30.45
2022-10-25T17:21:35.858Z,30.75
2022-10-25T17:24:04.497Z,29.92
2022-10-25T17:26:34.044Z,33.95
2022-10-25T17:29:02.169Z,31.20
2022-10-25T17:31:34.745Z,31.73
2022-10-25T17:34:03.243Z,31.05
2022-10-25T17:36:32.580Z,31.90
2022-10-25T17:39:04.292Z,32.08
2022-10-25T17:41:33.738Z,31.08
2022-10-25T17:44:01.640Z,31.45
2022-10-25T17:46:31.484Z,31.48
2022-10-25T17:49:05.316Z,33.83
2022-10-25T17:51:35.666Z,34.53
2022-10-25T17:54:03.570Z,34.80
2022-10-25T17:56:32.827Z,34.35
2022-10-25T17:59:04.228Z,35.85
2022-10-25T18:01:35.345Z,33.85
2022-10-25T18:04:03.519Z,35.53
2022-10-25T18:06:32.150Z,34.33
2022-10-25T18:09:00.479Z,34.78
2022-10-25T18:11:28.882Z,34.17
2022-10-25T18:14:00.360Z,34.08
2022-10-25T18:16:31.117Z,34.83
2022-10-25T18:19:01.923Z,34.38
2022-10-25T18:21:33.766Z,33.45
2022-10-25T18:24:03.318Z,34.78
2022-10-25T18:26:32.521Z,35.03
2022-10-25T18:29:02.321Z,34.45
2022-10-25T18:31:30.849Z,34.20
2022-10-25T18:34:03.322Z,33.30
2022-10-25T18:36:31.783Z,34.25
2022-10-25T18:39:00.096Z,34.67
2022-10-25T18:41:30.068Z,34.75
2022-10-25T18:43:58.802Z,34.58
2022-10-25T18:46:30.674Z,33.05
2022-10-25T18:48:58.905Z,33.10
2022-10-25T18:51:28.844Z,33.15
2022-10-25T18:53:59.618Z,32.72
2022-10-25T18:56:31.063Z,31.98
2022-10-25T18:58:59.690Z,32.58
2022-10-25T19:01:35.024Z,32.10
2022-10-25T19:04:04.542Z,31.55
2022-10-25T19:06:35.949Z,31.48
2022-10-25T19:09:04.723Z,31.58
2022-10-25T19:11:35.729Z,29.75
2022-10-25T19:14:05.228Z,30.23
2022-10-25T19:16:36.080Z,30.42
2022-10-25T19:19:07.087Z,30.83
2022-10-25T19:21:38.430Z,29.80
2022-10-25T19:24:11.919Z,31.35
2022-10-25T19:26:40.078Z,30.85
2022-10-25T19:29:08.140Z,32.58
2022-10-25T19:31:37.588Z,33.67
2022-10-25T19:34:05.614Z,33.40
2022-10-25T19:36:33.859Z,32.55
2022-10-25T19:39:02.613Z,32.45
2022-10-25T19:41:30.716Z,32.53
2022-10-25T19:43:59.512Z,33.50
2022-10-25T19:46:27.684Z,33.38
2022-10-25T19:49:00.634Z,31.85
2022-10-25T19:51:28.849Z,33.63
2022-10-25T19:53:56.849Z,31.92
2022-10-25T19:56:25.310Z,32.75
2022-10-25T19:58:53.387Z,31.83
2022-10-25T20:01:23.813Z,31.48
2022-10-25T20:03:54.641Z,31.08
2022-10-25T20:06:30.024Z,31.63
2022-10-25T20:09:04.079Z,32.15
2022-10-25T20:11:32.578Z,30.70
2022-10-25T20:14:02.854Z,31.05
2022-10-25T20:16:31.957Z,30.20
2022-10-25T20:19:02.154Z,31.73
2022-10-25T20:21:37.808Z,30.65
2022-10-25T20:24:09.009Z,31.58
2022-10-25T20:26:41.901Z,31.05
2022-10-25T20:29:20.249Z,31.90
2022-10-25T20:31:50.007Z,31.02
2022-10-25T20:34:21.516Z,31.98
2022-10-25T20:36:52.441Z,31.67
2022-10-25T20:39:20.598Z,31.42
2022-10-25T20:41:48.814Z,31.75
2022-10-25T20:44:17.406Z,31.65
2022-10-25T20:46:45.634Z,31.15
2022-10-25T20:49:13.788Z,31.92
2022-10-25T20:51:41.736Z,31.90
2022-10-25T20:54:11.856Z,31.60
2022-10-25T20:56:40.395Z,32.45
2022-10-25T20:59:08.873Z,31.83
2022-10-25T21:01:39.959Z,31.73
2022-10-25T21:04:09.913Z,31.20
2022-10-25T21:06:37.904Z,31.95
2022-10-25T21:09:06.076Z,31.88
2022-10-25T21:11:35.844Z,32.53
2022-10-25T21:14:03.977Z,31.42
2022-10-25T21:16:32.211Z,32.13
2022-10-25T21:19:04.463Z,32.15
2022-10-25T21:21:32.629Z,32.28
2022-10-25T21:24:01.459Z,32.08
2022-10-25T21:26:29.458Z,31.83
2022-10-25T21:28:58.903Z,32.88
2022-10-25T21:31:26.814Z,32.53
2022-10-25T21:33:57.433Z,32.15
2022-10-25T21:36:29.474Z,32.97
2022-10-25T21:38:57.461Z,32.65
2022-10-25T21:41:27.038Z,33.50
2022-10-25T21:43:56.310Z,32.75
2022-10-25T21:46:27.704Z,33.50
2022-10-25T21:48:56.183Z,33.65
2022-10-25T21:51:27.702Z,34.50
2022-10-25T21:53:55.796Z,34.45
2022-10-25T21:56:30.729Z,34.30
2022-10-25T21:59:00.569Z,34.42
2022-10-25T22:01:31.636Z,34.30
2022-10-25T22:04:00.244Z,33.80
2022-10-25T22:06:28.712Z,34.10
2022-10-25T22:08:57.446Z,32.60
2022-10-25T22:11:26.738Z,34.45
2022-10-25T22:13:59.074Z,34.33
2022-10-25T22:16:29.225Z,35.88
2022-10-25T22:18:58.982Z,35.83
2022-10-25T22:21:34.774Z,36.03
2022-10-25T22:24:02.811Z,35.42
2022-10-25T22:26:30.891Z,37.53
2022-10-25T22:29:00.173Z,35.30
2022-10-25T22:31:31.269Z,35.67
2022-10-25T22:34:01.316Z,35.13
2022-10-25T22:36:30.721Z,34.03
2022-10-25T22:38:59.283Z,33.70
2022-10-25T22:41:29.354Z,34.88
2022-10-25T22:43:58.154Z,33.65
2022-10-25T22:46:27.702Z,33.17
2022-10-25T22:48:58.933Z,35.13
2022-10-25T22:51:28.764Z,34.53
2022-10-25T22:53:57.267Z,33.28
2022-10-25T22:56:27.237Z,33.20
2022-10-25T22:58:57.076Z,34.05
2022-10-25T23:01:26.899Z,33.78
2022-10-25T23:03:57.615Z,35.55
2022-10-25T23:06:26.863Z,34.13
2022-10-25T23:08:55.330Z,34.22
2022-10-25T23:11:25.288Z,34.90
2022-10-25T23:13:53.468Z,34.58
2022-10-25T23:16:21.810Z,35.00
2022-10-25T23:18:50.020Z,34.00
2022-10-25T23:21:24.297Z,34.33
2022-10-25T23:23:53.670Z,33.72
2022-10-25T23:26:23.527Z,33.55
2022-10-25T23:28:51.503Z,33.90
2022-10-25T23:31:19.806Z,34.45
2022-10-25T23:33:51.871Z,34.90
2022-10-25T23:36:22.921Z,34.67
2022-10-25T23:38:52.496Z,34.60
2022-10-25T23:41:21.309Z,34.63
2022-10-25T23:43:49.919Z,33.90
2022-10-25T23:46:18.066Z,35.70
2022-10-25T23:48:46.000Z,34.85
2022-10-25T23:51:15.683Z,34.83
2022-10-25T23:53:45.571Z,35.03
2022-10-25T23:56:14.687Z,33.72
2022-10-25T23:58:43.062Z,34.65
